Terminal Aerodrome Forecast
Issued by NWS

Home | Current Version | Previous Version | Text Only | Print | Product List | Glossary On
Versions: 1 2 3 4 5 6 7 8 9 10 11 12 13 14 15 16 17 18 19 20 21 22 23 24 25 26 27 28 29 30 31 32 33 34 35 36 37 38
000
FTAK31 PANC 192118 AAA
TAFADL
TAF AMD
PADL 192118Z 1921/2018 19010KT P6SM -SHRA SCT010 OVC015
     FM200000 19014G22KT P6SM VCSH SCT015 BKN030
     FM200300 22015G25KT 3SM -SHSN BKN020
     FM200700 19008KT P6SM BKN070
     FM201500 15010G18KT 3SM -SHSN BKN015=

USA.gov is the U.S. government's official web portal to all federal, state and local government web resources and services.